Time;durP1;ratioP1;P1;durP2;ratioP2;P2;SDS_P1;SDS_P2;PMS_P1;PMS_P2;Temp;Humidity;BMP_temperature;BMP_pressure;BME280_temperature;BME280_humidity;BME280_pressure;Samples;Min_cycle;Max_cycle;Signal;HPM_P1;HPM_P2
2024/03/21 00:02:04;;;;;;;;;;;8.40;99.90;;;7.45;100.00;98159.50;4984755;28;1643;-69
2024/03/21 00:04:30;;;;;;;;;;;8.40;99.90;;;7.47;100.00;98160.31;4985407;28;1606;-69
2024/03/21 00:06:56;;;;;;;;;;;8.40;99.90;;;7.36;100.00;98152.78;4982471;28;1847;-70
2024/03/21 00:09:22;;;;;;;;;;;8.40;99.90;;;7.28;100.00;98152.09;4983886;28;2056;-69
2024/03/21 00:11:48;;;;;;;;;;;8.40;99.90;;;7.25;100.00;98153.03;4985415;28;1910;-69
2024/03/21 00:14:15;;;;;;;;;;;8.40;99.90;;;7.35;100.00;98148.50;4995170;28;2536;-69
2024/03/21 00:16:41;;;;;;;;;;;8.20;99.90;;;7.08;100.00;98145.59;4979543;28;1656;-69
2024/03/21 00:19:07;;;;;;;;;;;8.20;99.90;;;7.16;100.00;98144.59;4981399;28;1809;-70
2024/03/21 00:21:34;;;;;;;;;;;8.20;99.90;;;7.16;100.00;98145.47;4995726;28;1619;-70
2024/03/21 00:24:00;;;;;;;;;;;8.20;99.90;;;7.20;100.00;98147.06;4997681;28;3144;-70
2024/03/21 00:26:25;;;;;;;;;;;8.10;99.90;;;7.03;100.00;98151.75;4997025;28;1643;-70
2024/03/21 00:28:52;;;;;;;;;;;8.10;99.90;;;6.61;100.00;98154.22;4981673;28;1647;-70
2024/03/21 00:31:18;;;;;;;;;;;8.10;99.90;;;6.61;100.00;98161.94;4998499;28;1713;-70
2024/03/21 00:33:49;;;;;;;;;;;8.00;99.90;;;6.94;100.00;98163.09;4995264;28;1910;-70
2024/03/21 00:36:15;;;;;;;;;;;8.00;99.90;;;7.05;100.00;98161.16;4980471;28;1614;-70
2024/03/21 00:38:41;;;;;;;;;;;8.00;99.90;;;7.11;100.00;98173.06;4996544;28;1856;-70
2024/03/21 00:41:08;;;;;;;;;;;8.00;99.90;;;7.11;100.00;98173.06;4997531;28;1569;-70
2024/03/21 00:43:34;;;;;;;;;;;8.00;99.90;;;7.05;100.00;98157.72;4980811;28;2393;-70
2024/03/21 00:46:00;;;;;;;;;;;8.10;99.90;;;6.96;100.00;98158.75;4995823;28;2343;-70
2024/03/21 00:48:26;;;;;;;;;;;8.00;99.90;;;6.61;100.00;98160.22;4984016;28;2271;-70
2024/03/21 00:50:52;;;;;;;;;;;8.00;99.90;;;6.77;100.00;98170.28;4980188;28;1567;-69
2024/03/21 00:53:18;;;;;;;;;;;8.00;99.90;;;7.00;100.00;98170.72;4964687;28;2430;-70
2024/03/21 00:55:44;;;;;;;;;;;8.00;99.90;;;6.84;100.00;98166.69;4999346;28;1638;-70
2024/03/21 00:58:10;;;;;;;;;;;8.00;99.90;;;6.92;100.00;98157.09;4996225;28;1551;-70
2024/03/21 01:00:36;;;;;;;;;;;8.00;99.90;;;6.76;100.00;98158.25;4982975;28;1737;-68
2024/03/21 01:03:02;;;;;;;;;;;8.00;99.90;;;6.96;100.00;98156.16;4982458;28;1543;-70
2024/03/21 01:05:29;;;;;;;;;;;8.00;99.90;;;6.82;100.00;98153.84;4982571;28;3213;-68
2024/03/21 01:07:55;;;;;;;;;;;8.00;99.90;;;6.75;100.00;98154.84;4980564;28;1426;-70
2024/03/21 01:10:21;;;;;;;;;;;7.90;99.90;;;6.93;100.00;98156.19;4980711;28;1562;-70
2024/03/21 01:12:47;;;;;;;;;;;7.80;99.90;;;6.93;100.00;98161.38;4983295;28;1902;-70
2024/03/21 01:15:15;;;;;;;;;;;7.70;99.90;;;6.87;100.00;98154.59;4963841;28;1703;-70
2024/03/21 01:17:43;;;;;;;;;;;7.70;99.90;;;6.93;100.00;98163.09;4992857;28;1690;-70
2024/03/21 01:20:09;;;;;;;;;;;7.70;99.90;;;6.88;100.00;98169.19;4978668;28;2268;-70
2024/03/21 01:22:35;;;;;;;;;;;7.70;99.90;;;6.98;100.00;98169.91;4995998;28;1547;-70
2024/03/21 01:25:01;;;;;;;;;;;7.70;99.90;;;6.75;100.00;98169.44;4985376;28;1593;-70
2024/03/21 01:27:27;;;;;;;;;;;7.80;99.90;;;6.82;100.00;98178.78;4978108;28;1592;-70
2024/03/21 01:29:53;;;;;;;;;;;7.80;99.90;;;7.07;100.00;98179.16;4978621;28;1447;-69
2024/03/21 01:32:18;;;;;;;;;;;7.90;99.90;;;7.21;100.00;98177.19;4980224;28;1970;-69
2024/03/21 01:34:45;;;;;;;;;;;8.00;99.90;;;7.01;100.00;98168.97;4994633;28;2040;-69
2024/03/21 01:37:10;;;;;;;;;;;8.00;99.90;;;7.12;100.00;98167.03;4981696;28;1794;-70
2024/03/21 01:39:36;;;;;;;;;;;8.00;99.90;;;7.18;100.00;98158.31;4994161;28;1792;-69
2024/03/21 01:42:02;;;;;;;;;;;8.10;99.90;;;7.06;100.00;98155.09;4964660;28;1822;-69
2024/03/21 01:44:28;;;;;;;;;;;8.10;99.90;;;7.13;100.00;98161.00;4979277;28;1847;-69
2024/03/21 01:46:55;;;;;;;;;;;8.10;99.90;;;7.18;100.00;98148.84;4997117;28;1626;-69
2024/03/21 01:49:21;;;;;;;;;;;8.10;99.90;;;7.10;100.00;98145.56;4979739;28;3285;-69
2024/03/21 01:51:48;;;;;;;;;;;8.10;99.90;;;7.05;100.00;98137.91;4966837;28;2299;-70
2024/03/21 01:54:17;;;;;;;;;;;8.10;99.90;;;7.04;100.00;98143.94;4979266;28;1651;-70
2024/03/21 01:56:44;;;;;;;;;;;8.10;99.90;;;6.90;100.00;98139.06;4985679;28;1624;-70
2024/03/21 01:59:10;;;;;;;;;;;8.10;99.90;;;6.94;100.00;98144.16;4995098;28;1539;-69
2024/03/21 02:01:36;;;;;;;;;;;8.00;99.90;;;6.90;100.00;98139.06;4995829;28;1682;-69
2024/03/21 02:04:03;;;;;;;;;;;8.00;99.90;;;6.82;100.00;98142.66;4980233;28;1449;-69
2024/03/21 02:06:34;;;;;;;;;;;8.00;99.90;;;6.77;100.00;98147.03;4982180;28;1579;-69
2024/03/21 02:09:01;;;;;;;;;;;7.90;99.90;;;6.82;100.00;98150.38;4980895;28;1425;-70
2024/03/21 02:11:27;;;;;;;;;;;7.90;99.90;;;6.84;100.00;98152.09;4979678;28;1694;-69
2024/03/21 02:13:54;;;;;;;;;;;7.90;99.90;;;6.91;100.00;98160.53;4997034;28;1902;-69
2024/03/21 02:16:21;;;;;;;;;;;7.90;99.90;;;6.90;100.00;98151.94;4984176;28;2036;-70
2024/03/21 02:18:48;;;;;;;;;;;7.90;99.90;;;6.87;100.00;98159.75;4966434;28;1364;-69
2024/03/21 02:23:59;;;;;;;;;;;7.80;99.90;;;6.60;100.00;98174.00;4998703;28;1614;-69
2024/03/21 02:26:26;;;;;;;;;;;7.80;99.90;;;6.86;100.00;98181.28;4981937;28;1646;-69
2024/03/21 02:28:52;;;;;;;;;;;7.80;99.90;;;7.03;100.00;98178.41;4996255;28;1380;-69
2024/03/21 02:31:19;;;;;;;;;;;7.90;99.90;;;6.87;100.00;98175.25;4997638;28;3296;-69
2024/03/21 02:33:47;;;;;;;;;;;7.90;99.90;;;6.87;100.00;98171.81;4982511;28;1907;-70
2024/03/21 02:36:13;;;;;;;;;;;7.90;99.90;;;6.99;100.00;98168.16;4999120;28;1677;-70
2024/03/21 02:38:39;;;;;;;;;;;7.90;99.90;;;6.88;100.00;98174.34;4998339;28;1517;-68
2024/03/21 02:41:06;;;;;;;;;;;7.90;99.90;;;6.80;100.00;98175.41;4964983;28;1602;-70
2024/03/21 02:43:32;;;;;;;;;;;7.90;99.90;;;6.75;100.00;98180.63;4967639;28;1655;-70
2024/03/21 02:45:57;;;;;;;;;;;7.90;99.90;;;6.58;100.00;98180.06;4997205;28;2281;-70
2024/03/21 02:48:23;;;;;;;;;;;7.80;99.90;;;6.60;100.00;98191.22;4997028;28;2361;-70
2024/03/21 02:50:49;;;;;;;;;;;7.70;99.90;;;6.53;100.00;98190.47;4998957;28;1874;-69
2024/03/21 02:53:15;;;;;;;;;;;7.60;99.90;;;6.68;100.00;98197.06;4980300;28;2365;-70
2024/03/21 02:55:41;;;;;;;;;;;7.50;99.90;;;6.64;100.00;98187.72;4966209;28;1410;-70
2024/03/21 02:58:07;;;;;;;;;;;7.60;99.90;;;6.61;100.00;98195.47;4964644;28;1630;-70
2024/03/21 03:00:32;;;;;;;;;;;7.50;99.90;;;6.37;100.00;98191.59;4984000;28;1886;-70
2024/03/21 03:02:58;;;;;;;;;;;7.50;99.90;;;6.47;100.00;98188.81;4982133;28;1834;-70
2024/03/21 03:05:24;;;;;;;;;;;7.50;99.90;;;6.38;100.00;98193.28;4998995;28;1595;-70
2024/03/21 03:07:50;;;;;;;;;;;7.50;99.90;;;6.25;100.00;98195.22;4984014;28;2048;-70
2024/03/21 03:10:16;;;;;;;;;;;7.50;99.90;;;6.25;100.00;98195.22;4981301;28;1636;-70
2024/03/21 03:12:42;;;;;;;;;;;7.40;99.90;;;6.35;100.00;98194.19;4982203;28;1906;-70
2024/03/21 03:15:09;;;;;;;;;;;7.40;99.90;;;6.41;100.00;98199.25;4996952;28;1605;-70
2024/03/21 03:17:36;;;;;;;;;;;7.40;99.90;;;6.24;100.00;98204.66;4984559;28;1698;-70
2024/03/21 03:20:02;;;;;;;;;;;7.40;99.90;;;6.25;100.00;98203.78;4983425;28;1752;-70
2024/03/21 03:22:28;;;;;;;;;;;7.30;99.90;;;6.27;100.00;98203.75;4983070;28;3063;-70
2024/03/21 03:24:53;;;;;;;;;;;7.30;99.90;;;6.24;100.00;98209.81;4980973;28;1840;-70
2024/03/21 03:27:19;;;;;;;;;;;7.30;99.90;;;6.23;100.00;98213.28;4964124;28;1658;-68
2024/03/21 03:29:47;;;;;;;;;;;7.30;99.90;;;6.01;100.00;98207.56;4997847;28;1295;-70
2024/03/21 03:32:13;;;;;;;;;;;7.20;99.90;;;5.95;100.00;98217.94;4996907;28;1984;-70
2024/03/21 03:37:24;;;;;;;;;;;7.10;99.90;;;6.09;100.00;98220.38;4998665;28;1819;-70
2024/03/21 03:39:50;;;;;;;;;;;7.10;99.90;;;6.05;100.00;98213.53;4995183;28;1591;-70
2024/03/21 03:42:17;;;;;;;;;;;7.10;99.90;;;6.01;100.00;98217.03;4996461;28;1981;-70
2024/03/21 03:44:42;;;;;;;;;;;7.10;99.90;;;6.04;100.00;98209.25;4996247;28;1636;-69
2024/03/21 03:47:08;;;;;;;;;;;7.10;99.90;;;6.06;100.00;98202.34;4961936;28;2083;-70
2024/03/21 03:49:34;;;;;;;;;;;7.10;99.90;;;6.06;100.00;98200.63;4997023;28;2104;-69
2024/03/21 03:52:00;;;;;;;;;;;7.10;99.90;;;6.12;100.00;98201.44;4981518;28;1668;-69
2024/03/21 03:54:27;;;;;;;;;;;7.10;99.90;;;6.18;100.00;98209.91;4979846;28;1273;-70
2024/03/21 03:56:53;;;;;;;;;;;7.10;99.90;;;6.03;100.00;98204.97;4954126;28;1480;-69
2024/03/21 03:59:19;;;;;;;;;;;7.10;99.90;;;5.89;100.00;98200.00;4966049;28;1578;-69
2024/03/21 04:01:46;;;;;;;;;;;7.10;99.90;;;5.93;100.00;98201.66;4965576;28;1735;-70
2024/03/21 04:04:12;;;;;;;;;;;7.10;99.90;;;5.85;100.00;98195.75;4981226;28;3148;-69
2024/03/21 04:06:39;;;;;;;;;;;7.00;99.90;;;5.77;100.00;98198.44;4996483;28;1573;-70
2024/03/21 04:09:06;;;;;;;;;;;7.00;99.90;;;5.90;100.00;98198.25;4981508;28;1928;-70
2024/03/21 04:11:35;;;;;;;;;;;6.90;99.90;;;5.81;100.00;98197.50;4976450;28;1722;-70
2024/03/21 04:14:00;;;;;;;;;;;6.90;99.90;;;5.40;100.00;98195.47;4998255;28;1522;-69
2024/03/21 04:16:26;;;;;;;;;;;6.90;99.90;;;5.43;100.00;98196.28;4981571;28;2674;-69
2024/03/21 04:18:52;;;;;;;;;;;6.70;99.90;;;5.40;100.00;98200.59;4980992;28;2012;-69
2024/03/21 04:21:18;;;;;;;;;;;6.50;99.90;;;5.39;100.00;98214.38;4963739;28;1880;-70
2024/03/21 04:23:44;;;;;;;;;;;6.30;99.90;;;5.50;100.00;98211.69;4996567;28;1923;-69
2024/03/21 04:26:10;;;;;;;;;;;6.20;99.90;;;5.59;100.00;98214.97;4980130;28;1383;-70
2024/03/21 04:28:36;;;;;;;;;;;6.20;99.90;;;5.60;100.00;98226.13;4979999;28;1821;-69
2024/03/21 04:31:02;;;;;;;;;;;6.20;99.90;;;5.56;100.00;98233.03;4965239;28;2282;-69
2024/03/21 04:33:28;;;;;;;;;;;6.20;99.90;;;5.63;100.00;98244.09;4996230;28;1446;-69
2024/03/21 04:35:54;;;;;;;;;;;6.30;99.90;;;5.61;100.00;98245.84;4963856;28;1525;-69
2024/03/21 04:38:20;;;;;;;;;;;6.30;99.90;;;5.75;100.00;98248.28;4993212;28;1700;-69
2024/03/21 04:40:46;;;;;;;;;;;6.40;99.90;;;5.79;100.00;98253.38;4993910;28;1465;-70
2024/03/21 04:43:11;;;;;;;;;;;6.50;99.90;;;5.71;100.00;98255.19;4993459;28;3401;-69
2024/03/21 04:45:39;;;;;;;;;;;6.60;99.90;;;5.87;100.00;98246.38;4980824;28;2313;-69
2024/03/21 04:48:05;;;;;;;;;;;6.70;99.90;;;5.98;100.00;98243.69;4994127;28;2344;-69
2024/03/21 04:50:32;;;;;;;;;;;6.80;99.90;;;5.83;100.00;98242.13;4993654;28;2327;-69
2024/03/21 04:52:58;;;;;;;;;;;6.80;99.90;;;5.66;100.00;98244.09;4996299;28;1615;-69
2024/03/21 04:55:23;;;;;;;;;;;6.80;99.90;;;5.56;100.00;98252.78;4980416;28;1637;-69
2024/03/21 04:57:49;;;;;;;;;;;6.50;99.90;;;5.31;100.00;98254.78;4978572;28;1587;-69
2024/03/21 05:00:17;;;;;;;;;;;6.40;99.90;;;5.28;100.00;98254.81;4978455;28;1286;-69
2024/03/21 05:02:42;;;;;;;;;;;6.30;99.90;;;5.48;100.00;98250.31;4966138;28;2048;-70
2024/03/21 05:05:09;;;;;;;;;;;6.40;99.90;;;5.59;100.00;98255.34;4996519;28;1606;-69
2024/03/21 05:07:35;;;;;;;;;;;6.40;99.90;;;5.76;100.00;98260.28;4997143;28;1607;-69
2024/03/21 05:10:01;;;;;;;;;;;6.60;99.90;;;5.63;100.00;98263.00;4963942;28;1614;-70
2024/03/21 05:12:28;;;;;;;;;;;6.60;99.90;;;5.74;100.00;98267.16;4978429;28;1496;-69
2024/03/21 05:14:54;;;;;;;;;;;6.70;99.90;;;5.73;100.00;98268.03;4993588;28;1883;-69
2024/03/21 05:17:20;;;;;;;;;;;6.70;99.90;;;5.90;100.00;98268.66;4976884;28;2123;-69
2024/03/21 05:19:47;;;;;;;;;;;6.80;99.90;;;5.88;100.00;98273.00;4979483;28;1290;-70
2024/03/21 05:22:14;;;;;;;;;;;6.90;99.90;;;6.02;100.00;98268.56;4979895;28;1985;-69
2024/03/21 05:24:40;;;;;;;;;;;6.90;99.90;;;6.07;100.00;98278.81;4980976;28;1598;-70
2024/03/21 05:27:06;;;;;;;;;;;7.00;99.90;;;6.24;100.00;98286.31;4997250;28;1415;-69
2024/03/21 05:29:32;;;;;;;;;;;7.10;99.90;;;6.37;100.00;98293.00;4996516;28;1676;-69
2024/03/21 05:31:58;;;;;;;;;;;7.20;99.90;;;6.57;100.00;98297.00;4979901;28;1707;-69
2024/03/21 05:34:24;;;;;;;;;;;7.20;99.90;;;6.42;100.00;98293.78;4993057;28;1603;-69
2024/03/21 05:36:50;;;;;;;;;;;7.30;99.90;;;6.56;100.00;98295.31;4996044;28;1566;-69
2024/03/21 05:39:16;;;;;;;;;;;7.40;99.90;;;6.46;100.00;98292.00;4981668;28;3375;-69
2024/03/21 05:41:42;;;;;;;;;;;7.40;99.90;;;6.48;100.00;98285.13;4995729;28;1442;-69
2024/03/21 05:44:08;;;;;;;;;;;7.40;99.90;;;6.51;100.00;98290.22;4996015;28;1903;-69
2024/03/21 05:46:34;;;;;;;;;;;7.40;99.90;;;6.32;100.00;98296.50;4977330;28;1700;-70
2024/03/21 05:49:00;;;;;;;;;;;7.30;99.90;;;6.38;100.00;98299.84;4980931;28;1473;-69
2024/03/21 05:51:25;;;;;;;;;;;7.30;99.90;;;6.28;100.00;98311.19;4998902;28;1374;-70
2024/03/21 05:53:51;;;;;;;;;;;7.30;99.90;;;6.25;100.00;98316.38;4998773;28;2043;-69
2024/03/21 05:56:17;;;;;;;;;;;7.20;99.90;;;6.73;100.00;98315.66;4986277;28;1633;-69
2024/03/21 05:58:43;;;;;;;;;;;7.30;99.90;;;7.02;100.00;98335.88;4982084;28;1375;-69
2024/03/21 06:03:40;;;;;;;;;;;7.80;99.90;;;7.48;100.00;98335.94;4982917;28;1907;-70
2024/03/21 06:06:06;;;;;;;;;;;8.00;99.90;;;7.68;100.00;98343.31;4985273;28;1355;-69
2024/03/21 06:08:32;;;;;;;;;;;8.20;99.90;;;7.83;100.00;98337.00;4997008;28;2206;-70
2024/03/21 06:10:58;;;;;;;;;;;8.40;99.90;;;7.88;100.00;98335.19;4982897;28;1408;-70
2024/03/21 06:13:24;;;;;;;;;;;8.60;99.90;;;7.90;100.00;98340.34;4994816;28;1369;-70
2024/03/21 06:15:50;;;;;;;;;;;8.60;99.90;;;7.89;100.00;98341.19;4997209;28;1673;-70
2024/03/21 06:18:17;;;;;;;;;;;8.70;99.90;;;7.93;100.00;98345.44;4979805;28;1689;-70
2024/03/21 06:20:43;;;;;;;;;;;8.70;99.90;;;8.00;100.00;98347.00;4980135;28;1443;-70
2024/03/21 06:23:09;;;;;;;;;;;8.80;99.90;;;8.18;100.00;98348.38;4964850;28;3381;-69
2024/03/21 06:25:35;;;;;;;;;;;8.80;99.90;;;8.08;100.00;98350.31;4998284;28;1739;-69
2024/03/21 06:28:04;;;;;;;;;;;8.90;99.90;;;8.19;100.00;98360.44;4983098;28;1763;-70
2024/03/21 06:30:31;;;;;;;;;;;8.90;99.90;;;8.13;100.00;98356.22;4993403;28;1797;-70
2024/03/21 06:32:57;;;;;;;;;;;8.90;99.90;;;8.20;100.00;98361.28;4998755;28;1838;-70
2024/03/21 06:35:25;;;;;;;;;;;9.00;99.90;;;8.12;100.00;98353.69;4964290;28;1758;-69
2024/03/21 06:37:55;;;;;;;;;;;9.00;99.90;;;8.16;100.00;98369.13;4997840;28;2447;-70
2024/03/21 06:40:21;;;;;;;;;;;9.00;99.90;;;8.09;100.00;98362.34;4995868;28;1416;-70
2024/03/21 06:42:47;;;;;;;;;;;9.00;99.90;;;8.13;100.00;98360.56;4998366;28;2526;-69
2024/03/21 06:45:14;;;;;;;;;;;9.00;99.90;;;8.20;100.00;98366.47;4982228;28;2469;-69
2024/03/21 06:47:44;;;;;;;;;;;9.00;99.90;;;8.19;100.00;98363.03;4995645;28;2309;-69
2024/03/21 06:50:11;;;;;;;;;;;9.00;99.90;;;8.24;100.00;98370.69;4965119;28;1744;-70
2024/03/21 06:52:36;;;;;;;;;;;9.00;99.90;;;8.38;100.00;98372.09;4996254;28;1624;-70
2024/03/21 06:55:03;;;;;;;;;;;9.10;99.90;;;8.48;100.00;98374.50;4997592;28;1395;-69
2024/03/21 06:57:31;;;;;;;;;;;9.10;99.90;;;8.54;100.00;98385.59;4979446;28;1747;-70
2024/03/21 06:59:56;;;;;;;;;;;9.20;99.90;;;8.61;100.00;98370.78;4998583;28;1510;-70
2024/03/21 07:02:23;;;;;;;;;;;9.30;99.90;;;8.79;100.00;98379.88;4999403;28;3059;-70
2024/03/21 07:04:49;;;;;;;;;;;9.40;99.90;;;8.90;100.00;98369.28;4999524;28;1653;-70
2024/03/21 07:07:14;;;;;;;;;;;9.50;99.90;;;8.95;100.00;98370.88;4960675;28;1635;-70
2024/03/21 07:09:40;;;;;;;;;;;9.60;99.90;;;8.95;100.00;98370.88;4997223;28;1490;-69
2024/03/21 07:12:06;;;;;;;;;;;9.70;99.90;;;9.24;100.00;98376.22;4981627;28;1563;-69
2024/03/21 07:14:35;;;;;;;;;;;9.90;99.90;;;9.68;100.00;98372.53;4995899;28;1630;-70
2024/03/21 07:17:01;;;;;;;;;;;10.00;99.90;;;9.76;100.00;98367.13;4982282;28;2100;-70
2024/03/21 07:19:33;;;;;;;;;;;10.30;99.90;;;9.98;100.00;98357.88;4976936;28;1905;-70
2024/03/21 07:22:05;;;;;;;;;;;10.50;99.90;;;10.20;100.00;98371.09;4981678;28;1638;-70
2024/03/21 07:24:32;;;;;;;;;;;10.60;99.90;;;10.63;100.00;98361.25;4981832;28;1914;-70
2024/03/21 07:26:58;;;;;;;;;;;10.80;99.90;;;11.00;100.00;98347.97;4981714;28;1623;-70
2024/03/21 07:29:24;;;;;;;;;;;11.10;99.90;;;11.22;100.00;98339.47;4981492;28;2024;-70
2024/03/21 07:31:50;;;;;;;;;;;11.30;99.90;;;11.36;100.00;98328.59;4993726;28;1735;-70
2024/03/21 07:34:16;;;;;;;;;;;11.60;99.90;;;11.63;100.00;98326.81;4982055;28;1615;-70
2024/03/21 07:36:42;;;;;;;;;;;11.90;99.90;;;11.81;100.00;98315.75;4996217;28;1791;-70
2024/03/21 07:39:08;;;;;;;;;;;12.10;99.90;;;11.75;100.00;98309.97;4982981;28;1672;-70
2024/03/21 07:41:34;;;;;;;;;;;12.20;99.90;;;11.70;100.00;98305.75;4976651;28;1637;-70
2024/03/21 07:44:01;;;;;;;;;;;12.40;99.90;;;12.02;100.00;98295.97;4995619;28;3189;-70
2024/03/21 07:46:29;;;;;;;;;;;12.40;99.90;;;12.17;100.00;98283.28;4982281;28;2128;-70
2024/03/21 07:48:59;;;;;;;;;;;12.50;99.90;;;12.24;100.00;98288.19;4964685;28;1428;-70
2024/03/21 07:51:24;;;;;;;;;;;12.50;99.90;;;12.28;100.00;98284.56;4980310;28;1615;-70
2024/03/21 07:53:50;;;;;;;;;;;12.60;99.90;;;12.48;100.00;98282.97;4996485;28;1641;-70
2024/03/21 07:56:16;;;;;;;;;;;12.70;99.90;;;12.71;100.00;98275.09;4981262;28;1716;-70
2024/03/21 07:58:42;;;;;;;;;;;12.90;99.90;;;13.08;100.00;98277.94;4994514;28;2070;-70
2024/03/21 08:01:08;;;;;;;;;;;13.10;99.90;;;13.04;100.00;98273.78;4995380;28;2384;-70
2024/03/21 08:03:34;;;;;;;;;;;13.10;99.90;;;12.75;100.00;98278.44;4994021;28;1980;-70
2024/03/21 08:06:00;;;;;;;;;;;13.10;99.90;;;12.92;100.00;98277.75;4976857;28;2167;-70
2024/03/21 08:08:26;;;;;;;;;;;13.20;99.90;;;12.83;100.00;98278.94;4963439;28;1571;-70
2024/03/21 08:10:52;;;;;;;;;;;13.30;99.90;;;13.46;100.00;98281.59;4997022;28;1554;-70
2024/03/21 08:13:18;;;;;;;;;;;14.10;99.90;;;14.67;100.00;98266.59;4996589;28;2010;-70
2024/03/21 08:15:44;;;;;;;;;;;15.10;99.90;;;14.78;100.00;98261.66;4980351;28;1602;-70
2024/03/21 08:18:10;;;;;;;;;;;;;;;15.60;100.00;98250.56;4997153;28;1626;-70
2024/03/21 08:20:36;;;;;;;;;;;16.70;99.90;;;15.29;100.00;98240.84;4978815;28;1378;-70
2024/03/21 08:23:02;;;;;;;;;;;17.20;99.90;;;15.73;100.00;98253.41;4980391;28;1902;-70
2024/03/21 08:25:28;;;;;;;;;;;17.60;99.90;;;16.16;100.00;98238.03;4980417;28;3238;-70
2024/03/21 08:27:54;;;;;;;;;;;18.30;99.90;;;15.69;100.00;98247.47;4980585;28;1584;-70
2024/03/21 08:30:20;;;;;;;;;;;18.60;99.90;;;17.01;100.00;98239.38;4997216;28;1556;-70
2024/03/21 08:32:45;;;;;;;;;;;19.10;99.90;;;15.71;100.00;98229.09;4997349;28;1360;-70
2024/03/21 08:35:11;;;;;;;;;;;18.30;99.90;;;16.12;100.00;98236.50;4996741;28;1462;-70
2024/03/21 08:37:37;;;;;;;;;;;18.50;99.90;;;15.93;100.00;98231.44;4977404;28;1566;-70
2024/03/21 08:40:04;;;;;;;;;;;18.80;99.90;;;16.16;100.00;98245.88;4996092;28;2295;-70
2024/03/21 08:42:30;;;;;;;;;;;18.00;99.90;;;16.49;100.00;98243.19;4983582;28;1903;-70
2024/03/21 08:44:58;;;;;;;;;;;18.40;99.90;;;16.03;100.00;98238.72;4998252;28;1578;-70
2024/03/21 08:47:24;;;;;;;;;;;18.50;99.90;;;15.91;100.00;98244.59;4996791;28;2321;-70
2024/03/21 08:49:50;;;;;;;;;;;;;;;16.30;100.00;98246.81;4979544;28;2627;-70
2024/03/21 08:52:16;;;;;;;;;;;18.20;99.90;;;16.63;100.00;98248.50;4981547;28;1875;-70
2024/03/21 08:54:42;;;;;;;;;;;18.30;99.90;;;16.49;100.00;98253.66;4978655;28;1590;-70
2024/03/21 08:57:08;;;;;;;;;;;17.80;99.90;;;15.76;100.00;98261.09;4996165;28;1560;-69
2024/03/21 08:59:34;;;;;;;;;;;17.70;99.90;;;16.61;100.00;98255.59;4996999;28;1614;-70
2024/03/21 09:02:04;;;;;;;;;;;17.90;99.90;;;17.59;100.00;98245.59;4981985;28;1650;-70
2024/03/21 09:04:31;;;;;;;;;;;18.30;99.90;;;17.53;100.00;98242.38;4962643;28;3386;-70
2024/03/21 09:06:56;;;;;;;;;;;18.90;99.90;;;16.86;100.00;98249.84;5000486;28;1851;-70
2024/03/21 09:09:22;;;;;;;;;;;19.20;99.90;;;17.22;100.00;98248.63;4993747;28;1396;-70
2024/03/21 09:11:48;;;;;;;;;;;19.30;99.90;;;17.30;100.00;98250.78;4976315;28;1622;-70
2024/03/21 09:14:14;;;;;;;;;;;19.40;99.90;;;17.20;100.00;98261.00;4981013;28;1899;-70
2024/03/21 09:16:40;;;;;;;;;;;19.50;99.90;;;17.07;100.00;98260.03;4993505;28;1624;-70
2024/03/21 09:19:06;;;;;;;;;;;19.40;99.90;;;16.88;100.00;98261.09;4993636;28;1602;-70
2024/03/21 09:21:32;;;;;;;;;;;19.20;99.90;;;16.71;100.00;98276.88;4980808;28;1516;-70
2024/03/21 09:23:58;;;;;;;;;;;19.10;99.90;;;17.96;100.00;98260.81;4978230;28;1414;-70
2024/03/21 09:26:23;;;;;;;;;;;19.30;99.90;;;18.19;100.00;98250.66;4995045;28;1625;-70
2024/03/21 09:28:50;;;;;;;;;;;19.70;99.90;;;18.00;100.00;98243.09;4962388;28;1598;-70
2024/03/21 09:31:16;;;;;;;;;;;19.80;99.90;;;19.07;100.00;98227.47;4993302;28;1586;-70
2024/03/21 09:33:41;;;;;;;;;;;20.40;99.90;;;19.76;100.00;98222.78;4979566;28;2443;-70
2024/03/21 09:36:08;;;;;;;;;;;20.60;99.90;;;19.59;100.00;98208.13;4965340;28;1639;-70
2024/03/21 09:38:34;;;;;;;;;;;20.80;99.90;;;19.90;100.00;98211.25;4976551;28;1622;-70
2024/03/21 09:41:00;;;;;;;;;;;20.50;99.90;;;18.83;100.00;98227.28;4994307;28;1595;-70
2024/03/21 09:43:27;;;;;;;;;;;20.40;99.90;;;18.28;100.00;98226.41;4979109;28;1818;-70
2024/03/21 09:45:54;;;;;;;;;;;20.20;99.90;;;19.54;100.00;98225.16;4994411;28;3136;-70
2024/03/21 09:48:20;;;;;;;;;;;19.80;99.90;;;18.76;100.00;98225.97;4975509;28;1547;-70
2024/03/21 09:50:47;;;;;;;;;;;19.90;99.90;;;17.87;100.00;98242.16;4989642;28;1444;-70
2024/03/21 09:53:16;;;;;;;;;;;19.70;99.90;;;16.91;100.00;98265.31;4962361;28;1980;-70
2024/03/21 09:55:43;;;;;;;;;;;18.90;99.90;;;17.95;100.00;98256.50;4977903;28;1569;-70
2024/03/21 09:58:13;;;;;;;;;;;18.80;99.90;;;19.27;100.00;98230.53;4979140;28;1403;-70
2024/03/21 10:00:42;;;;;;;;;;;19.40;99.90;;;20.02;100.00;98223.56;4975687;28;2099;-70
2024/03/21 10:03:13;;;;;;;;;;;20.30;99.90;;;18.84;100.00;98229.00;4975285;28;2848;-70
2024/03/21 10:05:45;;;;;;;;;;;20.20;99.90;;;17.59;100.00;98245.59;4993124;28;1629;-70
2024/03/21 10:08:11;;;;;;;;;;;19.70;99.90;;;17.69;100.00;98257.22;4961588;28;1349;-70
2024/03/21 10:10:37;;;;;;;;;;;19.40;99.90;;;17.26;100.00;98258.00;4978248;28;1739;-70
2024/03/21 10:13:03;;;;;;;;;;;19.60;99.90;;;16.49;100.00;98269.41;4975380;28;1899;-70
2024/03/21 10:15:31;;;;;;;;;;;;;;;16.63;100.00;98274.69;4976520;28;1611;-70
2024/03/21 10:17:59;;;;;;;;;;;18.30;99.90;;;16.59;100.00;98273.19;4976577;28;2071;-70
2024/03/21 10:20:24;;;;;;;;;;;17.90;99.90;;;16.69;100.00;98278.75;4992279;28;1742;-70
2024/03/21 10:22:52;;;;;;;;;;;17.90;99.90;;;15.99;100.00;98293.94;4980298;28;1677;-70
2024/03/21 10:25:19;;;;;;;;;;;17.50;99.90;;;16.28;100.00;98285.38;4979450;28;1403;-70
2024/03/21 10:27:48;;;;;;;;;;;17.30;99.90;;;15.97;100.00;98296.63;4979622;28;1396;-70
2024/03/21 10:30:20;;;;;;;;;;;17.00;99.90;;;15.88;100.00;98291.88;4977119;28;3258;-69
2024/03/21 10:32:47;;;;;;;;;;;17.00;99.90;;;15.86;100.00;98298.97;4982073;28;1918;-70
2024/03/21 10:35:20;;;;;;;;;;;16.80;99.90;;;15.42;100.00;98292.47;4996247;28;1579;-70
2024/03/21 10:37:46;;;;;;;;;;;16.60;99.90;;;15.65;100.00;98285.22;4997043;28;1712;-70
2024/03/21 10:40:13;;;;;;;;;;;;;;;15.68;100.00;98292.88;4979215;28;1628;-70
2024/03/21 10:42:44;;;;;;;;;;;16.30;99.90;;;15.37;100.00;98304.06;4995586;28;2258;-70
2024/03/21 10:45:13;;;;;;;;;;;16.20;99.90;;;15.17;100.00;98302.47;4964354;28;1555;-70
2024/03/21 10:47:50;;;;;;;;;;;16.20;99.90;;;15.29;100.00;98298.41;4977886;28;2216;-70
2024/03/21 10:50:17;;;;;;;;;;;16.00;99.90;;;15.41;100.00;98311.69;4977438;28;1676;-70
2024/03/21 10:53:02;;;;;;;;;;;16.10;99.90;;;15.24;100.00;98293.41;4994445;28;1906;-70
2024/03/21 10:55:27;;;;;;;;;;;16.00;99.90;;;15.13;100.00;98282.63;4960305;28;1520;-70
2024/03/21 10:57:55;;;;;;;;;;;15.90;99.90;;;15.14;100.00;98279.06;4985627;28;1516;-70
2024/03/21 11:00:22;;;;;;;;;;;15.90;99.90;;;15.27;100.00;98280.16;4981201;28;2059;-70
2024/03/21 11:02:54;;;;;;;;;;;16.00;99.90;;;15.41;100.00;98280.28;4963324;28;1630;-70
2024/03/21 11:05:25;;;;;;;;;;;15.80;99.90;;;15.27;100.00;98290.63;4994343;28;1577;-70
2024/03/21 11:07:51;;;;;;;;;;;15.70;99.90;;;15.53;100.00;98297.16;4999472;28;1662;-70
2024/03/21 11:10:18;;;;;;;;;;;16.00;99.90;;;15.68;100.00;98285.88;4979824;28;1673;-69
2024/03/21 11:12:45;;;;;;;;;;;16.10;99.90;;;15.53;100.00;98298.91;4981401;28;1978;-70
2024/03/21 11:15:11;;;;;;;;;;;16.10;99.90;;;15.41;100.00;98306.44;4962999;28;3226;-70
2024/03/21 11:17:38;;;;;;;;;;;16.10;99.90;;;15.57;100.00;98303.06;4992308;28;1598;-70
2024/03/21 11:20:09;;;;;;;;;;;16.10;99.90;;;15.76;100.00;98306.47;4992901;28;1632;-70
2024/03/21 11:22:38;;;;;;;;;;;16.30;99.90;;;15.80;100.00;98291.44;4982352;28;1564;-69
2024/03/21 11:25:04;;;;;;;;;;;16.50;99.90;;;15.55;100.00;98282.19;4997339;28;1598;-70
2024/03/21 11:27:30;;;;;;;;;;;16.50;99.90;;;15.75;100.00;98278.59;4985335;28;1694;-69
2024/03/21 11:29:56;;;;;;;;;;;16.40;99.90;;;15.60;100.00;98279.34;4981019;28;2032;-69
2024/03/21 11:32:23;;;;;;;;;;;16.40;99.90;;;15.83;100.00;98265.94;4967775;28;1437;-70
2024/03/21 11:34:50;;;;;;;;;;;16.40;99.90;;;16.08;100.00;98272.50;4995927;28;1979;-69